createdAt,value
2019-03-08T00:04:13.571Z,96859.56
2019-03-08T00:09:15.389Z,96862.98
2019-03-08T00:14:17.199Z,96863.53
2019-03-08T00:19:19.620Z,96872.73
2019-03-08T00:24:21.792Z,96886.45
2019-03-08T00:29:24.586Z,96881.47
2019-03-08T00:34:26.819Z,96883.41
2019-03-08T00:39:29.020Z,96891.79
2019-03-08T00:44:31.101Z,96892.86
2019-03-08T00:49:33.151Z,96897.67
2019-03-08T00:54:35.273Z,96909.47
2019-03-08T00:59:37.888Z,96912.77
2019-03-08T01:04:39.995Z,96921.04
2019-03-08T01:09:42.079Z,96922.11
2019-03-08T01:14:44.235Z,96926.98
2019-03-08T01:19:45.782Z,96932.78
2019-03-08T01:24:47.572Z,96928.66
2019-03-08T01:29:49.228Z,96931.79
2019-03-08T01:34:50.916Z,96930.97
2019-03-08T01:39:52.559Z,96938.42
2019-03-08T01:44:54.148Z,96935.67
2019-03-08T01:49:55.703Z,96935.38
2019-03-08T01:54:57.459Z,96941.70
2019-03-08T01:59:59.021Z,96939.05
2019-03-08T02:05:00.577Z,96940.28
2019-03-08T02:10:06.892Z,96933.59
2019-03-08T02:15:13.051Z,96941.39
2019-03-08T02:20:18.761Z,96943.95
2019-03-08T02:25:20.311Z,96944.92
2019-03-08T02:30:22.459Z,96933.77
2019-03-08T02:35:24.216Z,96925.95
2019-03-08T02:40:35.791Z,96927.78
2019-03-08T02:45:37.439Z,96931.26
2019-03-08T02:50:40.343Z,96930.98
2019-03-08T02:55:41.910Z,96945.89
2019-03-08T03:00:44.263Z,96944.92
2019-03-08T03:05:46.919Z,96949.92
2019-03-08T03:10:48.459Z,96941.55
2019-03-08T03:15:50.008Z,96930.75
2019-03-08T03:20:52.004Z,96934.55
2019-03-08T03:25:53.556Z,96935.41
2019-03-08T03:30:55.237Z,96937.39
2019-03-08T03:35:56.783Z,96955.23
2019-03-08T03:40:58.701Z,96962.56
2019-03-08T03:46:00.351Z,96962.30
2019-03-08T03:51:02.053Z,96964.97
2019-03-08T03:56:03.708Z,96968.39
2019-03-08T04:01:09.840Z,96964.76
2019-03-08T04:06:11.408Z,96976.53
2019-03-08T04:11:13.171Z,96978.56
2019-03-08T04:16:14.741Z,96978.56
2019-03-08T04:21:16.300Z,96970.98
2019-03-08T04:26:17.857Z,96978.50
2019-03-08T04:31:19.464Z,96971.74
2019-03-08T04:36:21.312Z,96963.45
2019-03-08T04:41:22.991Z,96962.63
2019-03-08T04:46:24.539Z,96967.25
2019-03-08T04:51:26.094Z,96967.53
2019-03-08T04:56:27.817Z,96965.50
2019-03-08T05:01:29.783Z,96965.64
2019-03-08T05:06:31.352Z,96970.79
2019-03-08T05:11:32.973Z,96976.98
2019-03-08T05:16:34.543Z,96971.22
2019-03-08T05:21:36.079Z,96974.69
2019-03-08T05:26:37.939Z,96976.98
2019-03-08T05:31:39.492Z,96982.56
2019-03-08T05:36:41.045Z,96971.97
2019-03-08T05:41:42.720Z,96971.47
2019-03-08T05:46:44.267Z,96973.91
2019-03-08T05:51:45.820Z,96980.20
2019-03-08T05:56:47.496Z,96994.83
2019-03-08T06:01:49.298Z,97000.94
2019-03-08T06:06:50.937Z,96993.06
2019-03-08T06:11:52.792Z,96990.06
2019-03-08T06:16:54.508Z,96992.56
2019-03-08T06:21:56.086Z,97000.22
2019-03-08T06:26:57.797Z,97012.02
2019-03-08T06:31:59.597Z,97010.06
2019-03-08T06:37:01.188Z,97015.86
2019-03-08T06:42:02.937Z,97016.75
2019-03-08T06:47:04.565Z,97013.13
2019-03-08T06:52:06.116Z,97018.56
2019-03-08T06:57:07.669Z,97017.02
2019-03-08T07:02:09.923Z,97018.36
2019-03-08T07:07:11.476Z,97010.68
2019-03-08T07:12:13.131Z,97000.88
2019-03-08T07:17:14.741Z,97013.22
2019-03-08T07:22:18.292Z,97006.35
2019-03-08T07:27:24.389Z,97016.05
2019-03-08T07:32:27.847Z,97014.16
2019-03-08T07:37:43.449Z,97014.06
2019-03-08T07:42:49.711Z,97010.05
2019-03-08T07:48:08.374Z,97013.52
2019-03-08T07:53:17.751Z,97019.95
2019-03-08T07:58:23.835Z,97021.78
2019-03-08T08:03:28.050Z,97017.33
2019-03-08T08:08:37.582Z,97020.62
2019-03-08T08:13:39.343Z,97014.89
2019-03-08T08:18:59.616Z,97017.39
2019-03-08T08:24:05.937Z,97019.93
2019-03-08T08:29:09.494Z,97034.61
2019-03-08T08:34:12.947Z,97039.08
2019-03-08T08:39:25.517Z,97033.70
2019-03-08T08:44:35.525Z,97048.47
2019-03-08T08:49:56.247Z,97048.44
2019-03-08T08:55:16.732Z,97043.03
2019-03-08T09:00:30.955Z,97048.26
2019-03-08T09:05:34.507Z,97054.27
2019-03-08T09:10:37.962Z,97038.38
2019-03-08T09:15:41.496Z,97028.12
2019-03-08T09:20:51.066Z,97032.16
2019-03-08T09:26:09.563Z,97049.33
2019-03-08T09:31:25.210Z,97051.13
2019-03-08T09:36:34.371Z,97057.62
2019-03-08T09:41:50.528Z,97060.84
2019-03-08T09:46:57.064Z,97048.55
2019-03-08T09:52:00.623Z,97043.65
2019-03-08T09:57:09.581Z,97066.21
2019-03-08T10:02:11.147Z,97048.56
2019-03-08T10:07:21.871Z,97050.23
2019-03-08T10:12:37.412Z,97044.16
2019-03-08T10:17:40.925Z,97047.17
2019-03-08T10:22:45.409Z,97058.80
2019-03-08T10:27:54.739Z,97062.78
2019-03-08T10:33:13.352Z,97054.17
2019-03-08T10:38:22.721Z,97060.98
2019-03-08T10:43:41.294Z,97067.44
2019-03-08T10:48:47.935Z,97063.52
2019-03-08T10:54:00.620Z,97057.02
2019-03-08T10:59:03.485Z,97049.25
2019-03-08T11:04:09.986Z,97054.58
2019-03-08T11:09:22.048Z,97045.24
2019-03-08T11:14:28.433Z,97049.00
2019-03-08T11:19:31.947Z,97064.23
2019-03-08T11:24:33.516Z,97074.02
2019-03-08T11:29:52.459Z,97070.11
2019-03-08T11:34:54.328Z,97073.13
2019-03-08T11:40:07.813Z,97078.33
2019-03-08T11:45:17.869Z,97078.99
2019-03-08T11:50:27.079Z,97086.52
2019-03-08T11:55:34.734Z,97089.55
2019-03-08T12:00:42.042Z,97084.06
2019-03-08T12:06:02.293Z,97077.40
2019-03-08T12:11:13.410Z,97072.83
2019-03-08T12:16:22.900Z,97065.55
2019-03-08T12:21:29.449Z,97069.33
2019-03-08T12:26:49.331Z,97071.52
2019-03-08T12:32:09.665Z,97067.61
2019-03-08T12:37:13.142Z,97072.03
2019-03-08T12:42:14.889Z,97064.90
2019-03-08T12:47:27.140Z,97075.90
2019-03-08T12:52:37.737Z,97081.65
2019-03-08T12:57:53.201Z,97086.39
2019-03-08T13:03:00.424Z,97096.39
2019-03-08T13:08:04.828Z,97091.20
2019-03-08T13:13:06.381Z,97106.00
2019-03-08T13:18:07.931Z,97121.17
2019-03-08T13:23:09.479Z,97123.45
2019-03-08T13:28:11.032Z,97135.98
2019-03-08T13:33:12.696Z,97135.02
2019-03-08T13:38:14.316Z,97141.70
2019-03-08T13:43:15.917Z,97134.36
2019-03-08T13:48:17.471Z,97153.46
2019-03-08T13:53:19.101Z,97164.07
2019-03-08T13:58:20.666Z,97154.74
2019-03-08T14:03:22.405Z,97150.58
2019-03-08T14:08:24.007Z,97152.56
2019-03-08T14:13:25.663Z,97157.41
2019-03-08T14:18:27.226Z,97144.92
2019-03-08T14:23:28.812Z,97148.87
2019-03-08T14:28:30.377Z,97156.38
2019-03-08T14:33:34.364Z,97157.28
2019-03-08T14:38:36.880Z,97161.20
2019-03-08T14:43:43.079Z,97165.02
2019-03-08T14:48:46.410Z,97177.05
2019-03-08T14:53:48.545Z,97177.70
2019-03-08T14:58:50.110Z,97170.46
2019-03-08T15:03:51.665Z,97184.02
2019-03-08T15:08:55.072Z,97188.02
2019-03-08T15:13:58.064Z,97188.59
2019-03-08T15:19:03.740Z,97191.55
2019-03-08T15:24:04.596Z,97191.52
2019-03-08T15:29:06.166Z,97201.41
2019-03-08T15:34:07.735Z,97205.72
2019-03-08T15:39:09.281Z,97197.55
2019-03-08T15:44:11.209Z,97205.97
2019-03-08T15:49:12.963Z,97220.72
2019-03-08T15:54:14.582Z,97218.45
2019-03-08T15:59:16.248Z,97224.33
2019-03-08T16:04:19.045Z,97232.83
2019-03-08T16:09:21.800Z,97267.26
2019-03-08T16:14:23.493Z,97269.91
2019-03-08T16:19:26.208Z,97253.72
2019-03-08T16:24:31.218Z,97248.64
2019-03-08T16:29:31.267Z,97242.91
2019-03-08T16:34:33.131Z,97250.98
2019-03-08T16:39:42.265Z,97253.92
2019-03-08T16:44:53.580Z,97261.66
2019-03-08T16:50:01.842Z,97265.84
2019-03-08T16:55:12.741Z,97279.62
2019-03-08T17:00:22.235Z,97277.77
2019-03-08T17:05:29.457Z,97278.88
2019-03-08T17:10:35.224Z,97278.45
2019-03-08T17:15:41.534Z,97283.52
2019-03-08T17:20:48.763Z,97291.93
2019-03-08T17:25:53.400Z,97297.31
2019-03-08T17:31:04.056Z,97304.38
2019-03-08T17:36:24.237Z,97318.87
2019-03-08T17:41:25.788Z,97321.75
2019-03-08T17:46:29.304Z,97334.25
2019-03-08T17:51:49.512Z,97328.16
2019-03-08T17:56:58.751Z,97343.28
2019-03-08T18:02:06.745Z,97337.40
2019-03-08T18:07:12.107Z,97343.22
2019-03-08T18:12:19.767Z,97344.38
2019-03-08T18:17:26.253Z,97352.59
2019-03-08T18:22:47.731Z,97351.92
2019-03-08T18:28:00.066Z,97361.47
2019-03-08T18:33:03.572Z,97362.16
2019-03-08T18:38:25.414Z,97371.42
2019-03-08T18:43:28.970Z,97377.45
2019-03-08T18:48:49.212Z,97382.66
2019-03-08T18:53:50.982Z,97392.42
2019-03-08T18:58:54.552Z,97406.27
2019-03-08T19:04:08.832Z,97421.30
2019-03-08T19:09:15.396Z,97432.03
2019-03-08T19:14:18.910Z,97443.31
2019-03-08T19:19:20.587Z,97449.75
2019-03-08T19:24:30.297Z,97456.23
2019-03-08T19:29:48.692Z,97457.00
2019-03-08T19:34:58.126Z,97462.70
2019-03-08T19:40:14.609Z,97461.88
2019-03-08T19:45:36.344Z,97457.33
2019-03-08T19:50:49.000Z,97464.08
2019-03-08T19:55:59.656Z,97467.97
2019-03-08T20:01:03.201Z,97477.72
2019-03-08T20:06:07.857Z,97473.08
2019-03-08T20:11:29.854Z,97492.06
2019-03-08T20:22:19.092Z,97503.25
2019-03-08T20:28:17.735Z,97511.70
2019-03-08T20:33:54.065Z,97514.83
2019-03-08T20:39:11.389Z,97515.56
2019-03-08T20:44:13.446Z,97518.20
2019-03-08T20:55:00.963Z,97519.86
2019-03-08T21:00:10.995Z,97524.79
2019-03-08T21:05:14.310Z,97525.38
2019-03-08T21:10:16.116Z,97538.27
2019-03-08T21:15:25.009Z,97549.81
2019-03-08T21:20:21.728Z,97550.05
2019-03-08T21:25:23.337Z,97549.93
2019-03-08T21:30:25.083Z,97556.42
2019-03-08T21:35:26.859Z,97577.13
2019-03-08T21:40:28.553Z,97586.85
2019-03-08T21:45:30.310Z,97588.55
2019-03-08T21:50:32.337Z,97597.34
2019-03-08T21:55:33.896Z,97604.55
2019-03-08T22:00:36.451Z,97619.56
2019-03-08T22:05:40.057Z,97622.46
2019-03-08T22:10:43.848Z,97624.99
2019-03-08T22:15:45.560Z,97631.11
2019-03-08T22:20:47.118Z,97631.97
2019-03-08T22:25:48.686Z,97639.88
2019-03-08T22:30:50.238Z,97636.53
2019-03-08T22:35:52.101Z,97633.27
2019-03-08T22:40:53.655Z,97650.45
2019-03-08T22:45:55.290Z,97642.89
2019-03-08T22:50:56.897Z,97645.29
2019-03-08T22:55:58.561Z,97654.18
2019-03-08T23:01:09.408Z,97665.25
2019-03-08T23:06:13.017Z,97673.18
2019-03-08T23:11:14.673Z,97672.44
2019-03-08T23:16:16.265Z,97680.86
2019-03-08T23:21:17.868Z,97679.36
2019-03-08T23:26:19.420Z,97672.48
2019-03-08T23:31:32.089Z,97689.02
2019-03-08T23:36:33.648Z,97690.63
2019-03-08T23:41:35.619Z,97693.34
2019-03-08T23:46:37.171Z,97715.96
2019-03-08T23:51:38.815Z,97709.59
2019-03-08T23:56:40.362Z,97717.34
